createdAt,value
2022-08-21T10:46:08.287Z,23.77
2022-08-21T10:47:08.246Z,23.73
2022-08-21T10:48:08.290Z,23.84
2022-08-21T10:49:08.330Z,23.92
2022-08-21T10:50:08.395Z,23.91
2022-08-21T10:51:08.421Z,23.93
2022-08-21T10:52:08.533Z,23.93
2022-08-21T10:53:08.551Z,23.93
2022-08-21T10:54:08.595Z,24.02
2022-08-21T10:55:08.638Z,23.92
2022-08-21T10:56:08.670Z,23.96
2022-08-21T10:57:08.739Z,23.95
2022-08-21T10:58:08.751Z,23.93
2022-08-21T10:59:08.779Z,23.92
2022-08-21T11:00:08.811Z,23.92
2022-08-21T11:01:08.953Z,23.95
2022-08-21T11:02:08.936Z,23.96
2022-08-21T11:03:08.933Z,23.99
2022-08-21T11:04:08.968Z,23.88
2022-08-21T11:05:09.009Z,23.86
2022-08-21T11:06:09.071Z,23.96
2022-08-21T11:07:17.112Z,23.93
2022-08-21T11:08:09.204Z,23.93
2022-08-21T11:09:09.242Z,23.84
2022-08-21T11:10:09.305Z,23.96
2022-08-21T11:11:09.375Z,23.74
2022-08-21T11:12:11.605Z,23.78
2022-08-21T11:13:09.503Z,23.76
2022-08-21T11:14:09.509Z,23.74
2022-08-21T11:15:14.920Z,23.76
2022-08-21T11:16:09.577Z,23.66
2022-08-21T11:17:09.631Z,23.63
2022-08-21T11:18:09.717Z,23.66
2022-08-21T11:19:09.700Z,23.59
2022-08-21T11:20:09.740Z,23.66
2022-08-21T11:21:09.792Z,23.68
2022-08-21T11:22:09.813Z,23.68
2022-08-21T11:23:10.342Z,23.66
2022-08-21T11:24:09.908Z,23.66
2022-08-21T11:25:09.946Z,23.74
2022-08-21T11:26:10.027Z,23.83
2022-08-21T11:27:10.049Z,23.95
2022-08-21T11:28:14.202Z,23.88
2022-08-21T11:29:10.182Z,23.93
2022-08-21T11:30:10.262Z,23.93
2022-08-21T11:31:10.262Z,23.98
2022-08-21T11:32:10.299Z,24.06
2022-08-21T11:33:10.343Z,24.08
2022-08-21T11:34:10.413Z,24.08
2022-08-21T11:35:10.441Z,24.16
2022-08-21T11:36:10.476Z,24.23
2022-08-21T11:37:10.547Z,24.20
2022-08-21T11:38:10.563Z,24.21
2022-08-21T11:39:10.628Z,24.21
2022-08-21T11:40:10.887Z,24.10
2022-08-21T11:41:10.702Z,24.16
2022-08-21T11:42:10.783Z,24.18
2022-08-21T11:43:10.783Z,24.14
2022-08-21T11:44:10.833Z,24.10
2022-08-21T11:45:10.882Z,24.16
2022-08-21T11:46:10.937Z,24.17
2022-08-21T11:47:11.005Z,24.16
2022-08-21T11:48:11.014Z,24.13
2022-08-21T11:49:11.042Z,24.20
2022-08-21T11:50:11.085Z,24.17
2022-08-21T11:51:11.117Z,24.21
2022-08-21T11:52:11.252Z,24.21
2022-08-21T11:53:11.223Z,24.23
2022-08-21T11:54:11.270Z,24.24
2022-08-21T11:55:11.309Z,24.32
2022-08-21T11:56:11.350Z,24.47
2022-08-21T11:57:11.421Z,24.42
2022-08-21T11:58:11.428Z,24.57
2022-08-21T11:59:11.502Z,24.54
2022-08-21T12:00:11.510Z,24.53
2022-08-21T12:01:11.559Z,24.61
2022-08-21T12:02:11.691Z,24.68
2022-08-21T12:03:11.642Z,24.70
2022-08-21T12:04:11.698Z,24.54
2022-08-21T12:05:11.704Z,24.54
2022-08-21T12:06:11.790Z,24.53
2022-08-21T12:07:11.812Z,24.57
2022-08-21T12:08:11.858Z,24.50
2022-08-21T12:09:11.880Z,24.53
2022-08-21T12:10:11.931Z,24.55
2022-08-21T12:11:11.928Z,24.54
2022-08-21T12:12:11.959Z,24.47
2022-08-21T12:13:11.975Z,24.51
2022-08-21T12:14:11.994Z,24.60
2022-08-21T12:15:12.044Z,24.45
2022-08-21T12:16:12.067Z,24.39
2022-08-21T12:17:12.337Z,24.40
2022-08-21T12:18:12.159Z,24.47
2022-08-21T12:19:12.191Z,24.39
2022-08-21T12:20:12.262Z,24.40
2022-08-21T12:21:12.316Z,24.43
2022-08-21T12:22:12.335Z,24.48
2022-08-21T12:23:13.230Z,24.50
2022-08-21T12:24:12.428Z,24.53
2022-08-21T12:25:12.479Z,24.53
2022-08-21T12:26:12.581Z,24.53
2022-08-21T12:27:12.571Z,24.54
2022-08-21T12:28:12.634Z,24.63
2022-08-21T12:29:12.681Z,24.58
2022-08-21T12:30:12.744Z,24.61
2022-08-21T12:31:12.824Z,24.51
2022-08-21T12:32:12.858Z,24.55
2022-08-21T12:33:12.864Z,24.47
2022-08-21T12:34:12.899Z,24.36
2022-08-21T12:35:15.504Z,24.42
2022-08-21T12:36:12.964Z,24.36
2022-08-21T12:37:13.058Z,24.36
2022-08-21T12:38:13.036Z,24.38
2022-08-21T12:39:13.068Z,24.39
2022-08-21T12:40:13.191Z,24.38
2022-08-21T12:41:14.083Z,24.30
2022-08-21T12:42:13.349Z,24.33
2022-08-21T12:43:13.249Z,24.29
2022-08-21T12:44:13.291Z,24.23
2022-08-21T12:45:13.332Z,24.23
2022-08-21T12:46:13.374Z,24.23
2022-08-21T12:47:13.499Z,24.11
2022-08-21T12:48:13.519Z,24.20
2022-08-21T12:49:13.580Z,24.20
2022-08-21T12:50:13.640Z,24.11
2022-08-21T12:51:13.678Z,24.17
2022-08-21T12:52:13.745Z,24.14
2022-08-21T12:53:20.425Z,24.13
2022-08-21T12:54:13.838Z,24.17
2022-08-21T12:55:13.956Z,24.06
2022-08-21T12:56:13.969Z,24.21
2022-08-21T12:57:14.028Z,24.18
2022-08-21T12:58:14.085Z,24.24
2022-08-21T12:59:14.126Z,24.30
2022-08-21T13:00:14.238Z,24.23
2022-08-21T13:01:14.312Z,24.29
2022-08-21T13:02:14.343Z,24.32
2022-08-21T13:03:14.309Z,24.42
2022-08-21T13:04:14.352Z,24.40
2022-08-21T13:05:14.420Z,24.40
2022-08-21T13:06:14.515Z,24.38
2022-08-21T13:07:14.478Z,24.38
2022-08-21T13:08:14.546Z,24.38
2022-08-21T13:09:14.563Z,24.40
2022-08-21T13:10:14.606Z,24.45
2022-08-21T13:11:15.389Z,24.40
2022-08-21T13:12:14.700Z,24.40
2022-08-21T13:13:14.883Z,24.45
2022-08-21T13:14:14.786Z,24.35
2022-08-21T13:15:14.833Z,24.26
2022-08-21T13:16:14.877Z,24.21
2022-08-21T13:17:23.245Z,24.13
2022-08-21T13:18:14.992Z,24.23
2022-08-21T13:19:14.999Z,24.11
2022-08-21T13:20:15.078Z,24.08
2022-08-21T13:21:15.131Z,24.16
2022-08-21T13:22:34.100Z,24.10
2022-08-21T13:23:15.286Z,24.20
2022-08-21T13:24:40.717Z,24.20
2022-08-21T13:25:15.362Z,24.18
2022-08-21T13:26:18.524Z,24.20
2022-08-21T13:27:15.471Z,24.10
2022-08-21T13:28:15.603Z,24.10
2022-08-21T13:29:15.542Z,24.18
2022-08-21T13:30:15.583Z,24.17
2022-08-21T13:31:15.638Z,24.14
2022-08-21T13:32:15.680Z,24.16
2022-08-21T13:33:15.751Z,24.11
2022-08-21T13:34:15.792Z,24.11
2022-08-21T13:35:15.812Z,24.16
2022-08-21T13:36:15.864Z,24.17
2022-08-21T13:37:15.916Z,24.11
2022-08-21T13:38:15.965Z,24.16
2022-08-21T13:39:16.049Z,24.13
2022-08-21T13:40:16.154Z,24.11
2022-08-21T13:41:16.096Z,24.13
2022-08-21T13:42:16.148Z,24.20
2022-08-21T13:43:19.924Z,24.18
2022-08-21T13:44:20.512Z,24.21
2022-08-21T13:45:16.233Z,24.13
2022-08-21T13:46:16.269Z,24.18
2022-08-21T13:47:16.315Z,24.13
2022-08-21T13:48:16.348Z,24.17
2022-08-21T13:49:16.410Z,24.10
2022-08-21T13:50:16.436Z,24.10
2022-08-21T13:51:16.469Z,24.16
2022-08-21T13:52:16.481Z,24.17
2022-08-21T13:53:16.508Z,24.16
2022-08-21T13:54:16.561Z,24.11
2022-08-21T13:55:16.602Z,24.08
2022-08-21T13:56:16.625Z,24.05
2022-08-21T13:57:16.678Z,24.01
2022-08-21T13:58:16.749Z,24.11
2022-08-21T13:59:16.852Z,23.95
2022-08-21T14:00:16.881Z,23.98
2022-08-21T14:01:17.013Z,24.05
2022-08-21T14:02:16.998Z,24.01
2022-08-21T14:03:17.045Z,23.98
2022-08-21T14:04:17.113Z,23.99
2022-08-21T14:05:17.135Z,24.02
2022-08-21T14:06:17.183Z,24.02
2022-08-21T14:07:17.261Z,24.01
2022-08-21T14:08:17.317Z,24.03
2022-08-21T14:09:17.336Z,24.08
2022-08-21T14:10:17.388Z,24.13
2022-08-21T14:11:17.439Z,24.08
2022-08-21T14:12:23.595Z,24.13
2022-08-21T14:13:17.571Z,24.18
2022-08-21T14:14:17.586Z,24.18
2022-08-21T14:15:17.609Z,24.13
2022-08-21T14:16:17.651Z,24.03
2022-08-21T14:17:25.008Z,24.11
2022-08-21T14:18:17.747Z,24.13
2022-08-21T14:19:17.736Z,24.13
2022-08-21T14:20:17.755Z,24.16
2022-08-21T14:21:17.770Z,24.13
2022-08-21T14:22:17.815Z,24.13
2022-08-21T14:23:17.848Z,24.11
2022-08-21T14:24:19.399Z,24.03
2022-08-21T14:25:17.880Z,24.05
2022-08-21T14:26:17.922Z,24.06
2022-08-21T14:27:17.950Z,23.98
2022-08-21T14:28:19.691Z,23.93
2022-08-21T14:29:18.063Z,24.02
2022-08-21T14:30:18.042Z,24.02
2022-08-21T14:31:18.077Z,23.95
2022-08-21T14:32:24.509Z,23.98
2022-08-21T14:33:18.155Z,23.96
2022-08-21T14:34:19.755Z,24.10
2022-08-21T14:35:18.265Z,23.96
2022-08-21T14:36:18.272Z,23.99
2022-08-21T14:37:18.334Z,23.96
2022-08-21T14:38:18.381Z,23.96
2022-08-21T14:39:18.451Z,23.99
2022-08-21T14:40:18.629Z,23.96
2022-08-21T14:41:18.583Z,24.02
2022-08-21T14:42:18.646Z,24.03
2022-08-21T14:43:18.683Z,24.08
2022-08-21T14:44:18.744Z,24.08
2022-08-21T14:45:23.809Z,24.14
2022-08-21T14:46:18.866Z,24.20
2022-08-21T14:47:18.936Z,24.13
2022-08-21T14:48:19.024Z,24.21
2022-08-21T14:49:19.053Z,24.26
2022-08-21T14:50:19.087Z,24.23
2022-08-21T14:51:19.122Z,24.38
2022-08-21T14:52:19.154Z,24.42
2022-08-21T14:53:19.219Z,24.33
2022-08-21T14:54:19.261Z,24.39
2022-08-21T14:55:19.291Z,24.43
2022-08-21T14:56:19.326Z,24.43
2022-08-21T14:57:19.359Z,24.55
2022-08-21T14:58:19.397Z,24.50
2022-08-21T14:59:19.464Z,24.42
2022-08-21T15:00:19.503Z,24.50
2022-08-21T15:01:19.601Z,24.60
2022-08-21T15:02:19.527Z,24.53
2022-08-21T15:03:19.551Z,24.53
2022-08-21T15:04:19.611Z,24.66
2022-08-21T15:05:24.159Z,24.69
2022-08-21T15:06:19.638Z,24.63
2022-08-21T15:07:19.680Z,24.66
2022-08-21T15:08:19.689Z,24.63
2022-08-21T15:09:19.709Z,24.68
2022-08-21T15:10:19.750Z,24.70
2022-08-21T15:11:42.779Z,24.76
2022-08-21T15:12:19.794Z,24.69
2022-08-21T15:13:19.840Z,24.69
2022-08-21T15:14:19.885Z,24.70
2022-08-21T15:15:19.957Z,24.70
2022-08-21T15:16:19.953Z,24.74
2022-08-21T15:17:20.002Z,24.68
2022-08-21T15:18:20.050Z,24.65
2022-08-21T15:19:20.104Z,24.69
2022-08-21T15:20:20.174Z,24.68
2022-08-21T15:21:20.180Z,24.66
2022-08-21T15:22:22.946Z,24.60
2022-08-21T15:23:20.256Z,24.66
2022-08-21T15:24:20.301Z,24.70
2022-08-21T15:25:20.317Z,24.63
2022-08-21T15:26:20.413Z,24.68
2022-08-21T15:27:20.317Z,24.70
2022-08-21T15:28:20.329Z,24.65
2022-08-21T15:29:22.832Z,24.55
2022-08-21T15:30:20.399Z,24.68
2022-08-21T15:31:20.492Z,24.68
2022-08-21T15:32:20.502Z,24.57
2022-08-21T15:33:20.550Z,24.60
2022-08-21T15:34:20.586Z,24.65
2022-08-21T15:35:20.635Z,24.68
2022-08-21T15:36:20.704Z,24.61
2022-08-21T15:37:20.690Z,24.63
2022-08-21T15:38:20.748Z,24.69
2022-08-21T15:39:20.814Z,24.61
2022-08-21T15:40:21.012Z,24.65
2022-08-21T15:41:20.938Z,24.68
2022-08-21T15:42:21.045Z,24.73
2022-08-21T15:43:21.060Z,24.77
2022-08-21T15:44:21.004Z,24.76
2022-08-21T15:45:21.038Z,24.78
2022-08-21T15:46:21.078Z,24.77
2022-08-21T15:47:21.275Z,24.77
2022-08-21T15:48:21.139Z,24.69
2022-08-21T15:49:21.184Z,24.76
2022-08-21T15:50:21.235Z,24.69
2022-08-21T15:51:21.272Z,24.70
2022-08-21T15:52:21.323Z,24.88
2022-08-21T15:53:21.417Z,24.77
2022-08-21T15:54:21.353Z,24.69
2022-08-21T15:55:21.386Z,24.70
2022-08-21T15:56:21.415Z,24.77
2022-08-21T15:57:21.448Z,24.77
2022-08-21T15:58:21.559Z,24.78
2022-08-21T15:59:21.506Z,24.77
2022-08-21T16:00:21.549Z,24.74
2022-08-21T16:01:21.669Z,24.66
2022-08-21T16:02:21.616Z,24.70
2022-08-21T16:03:21.681Z,24.63
2022-08-21T16:04:21.685Z,24.66
2022-08-21T16:05:21.726Z,24.53
2022-08-21T16:06:37.915Z,24.54
2022-08-21T16:07:21.806Z,24.43
2022-08-21T16:08:21.862Z,24.39
2022-08-21T16:09:21.870Z,24.38
2022-08-21T16:10:21.905Z,24.32
2022-08-21T16:11:21.938Z,24.39
2022-08-21T16:12:21.984Z,24.28
2022-08-21T16:13:22.060Z,24.21
2022-08-21T16:14:22.032Z,24.18
2022-08-21T16:15:22.079Z,24.16
2022-08-21T16:16:22.127Z,24.13
2022-08-21T16:17:22.167Z,24.05
2022-08-21T16:18:22.234Z,23.99
2022-08-21T16:19:22.218Z,23.98
2022-08-21T16:20:22.275Z,23.93
2022-08-21T16:21:22.283Z,23.99
2022-08-21T16:22:22.324Z,23.96
2022-08-21T16:23:22.365Z,23.99
2022-08-21T16:24:22.396Z,23.98
2022-08-21T16:25:22.458Z,23.92
2022-08-21T16:26:22.458Z,23.93
2022-08-21T16:27:22.531Z,23.88
2022-08-21T16:28:22.551Z,23.84
2022-08-21T16:29:22.588Z,23.81
2022-08-21T16:30:22.640Z,23.77
2022-08-21T16:31:22.698Z,23.74
2022-08-21T16:32:22.773Z,23.66
2022-08-21T16:33:22.787Z,23.59
2022-08-21T16:34:22.840Z,23.56
2022-08-21T16:35:22.889Z,23.54
2022-08-21T16:36:22.959Z,23.44
2022-08-21T16:37:24.420Z,23.44
2022-08-21T16:38:23.098Z,23.44
2022-08-21T16:39:23.161Z,23.39
2022-08-21T16:40:23.562Z,23.34
2022-08-21T16:41:23.309Z,23.34
2022-08-21T16:42:23.424Z,23.24
2022-08-21T16:43:23.455Z,23.28
2022-08-21T16:44:23.519Z,23.27
2022-08-21T16:45:23.640Z,23.24
2022-08-21T16:46:23.651Z,23.25
2022-08-21T16:47:27.135Z,23.17
2022-08-21T16:48:23.774Z,23.18
2022-08-21T16:49:23.826Z,23.18
2022-08-21T16:50:23.844Z,23.21
2022-08-21T16:51:23.890Z,23.20
2022-08-21T16:52:23.937Z,23.24
2022-08-21T16:53:24.005Z,23.27
2022-08-21T16:54:24.106Z,23.24
2022-08-21T16:55:24.166Z,23.28
2022-08-21T16:56:24.181Z,23.28
2022-08-21T16:57:24.233Z,23.21
2022-08-21T16:58:24.286Z,23.15
2022-08-21T16:59:24.367Z,23.21
2022-08-21T17:00:24.412Z,23.25
2022-08-21T17:01:24.508Z,23.17
2022-08-21T17:02:24.490Z,23.15
2022-08-21T17:03:24.570Z,23.13
2022-08-21T17:04:24.645Z,23.21
2022-08-21T17:05:24.684Z,23.13
2022-08-21T17:06:28.897Z,23.13
2022-08-21T17:07:24.816Z,23.09
2022-08-21T17:08:24.847Z,23.08
2022-08-21T17:09:24.894Z,23.15
2022-08-21T17:10:24.946Z,23.05
2022-08-21T17:11:36.672Z,23.08
2022-08-21T17:12:25.072Z,23.08
2022-08-21T17:13:25.152Z,23.03
2022-08-21T17:14:25.230Z,22.98
2022-08-21T17:15:25.296Z,22.93
2022-08-21T17:16:25.388Z,22.96
2022-08-21T17:17:25.433Z,22.93
2022-08-21T17:18:25.520Z,22.87
2022-08-21T17:19:25.609Z,22.91
2022-08-21T17:20:25.708Z,22.83
2022-08-21T17:21:25.731Z,22.84
2022-08-21T17:22:25.778Z,22.75
2022-08-21T17:23:25.834Z,22.87
2022-08-21T17:24:25.926Z,22.84
2022-08-21T17:25:25.953Z,22.72
2022-08-21T17:26:25.999Z,22.75
2022-08-21T17:27:26.851Z,22.78
2022-08-21T17:28:26.110Z,22.68
2022-08-21T17:29:26.288Z,22.60
2022-08-21T17:30:26.193Z,22.66
2022-08-21T17:31:26.245Z,22.69
2022-08-21T17:32:26.284Z,22.70
2022-08-21T17:33:26.327Z,22.66
2022-08-21T17:34:31.171Z,22.59
2022-08-21T17:35:26.444Z,22.65
2022-08-21T17:36:26.504Z,22.62
2022-08-21T17:37:29.333Z,22.47
2022-08-21T17:38:27.833Z,22.47
2022-08-21T17:39:26.894Z,22.53
2022-08-21T17:40:26.849Z,22.50
2022-08-21T17:41:26.849Z,22.48
2022-08-21T17:42:26.907Z,22.38
2022-08-21T17:43:26.964Z,22.44
2022-08-21T17:44:27.052Z,22.51
2022-08-21T17:45:27.086Z,22.48
2022-08-21T17:46:27.170Z,22.43
2022-08-21T17:47:27.235Z,22.38
2022-08-21T17:48:27.279Z,22.38
2022-08-21T17:49:27.358Z,22.33
2022-08-21T17:50:27.388Z,22.35
2022-08-21T17:51:27.446Z,22.33
2022-08-21T17:52:27.507Z,22.30
2022-08-21T17:53:27.564Z,22.32
2022-08-21T17:54:27.654Z,22.28
2022-08-21T17:55:27.679Z,22.26
2022-08-21T17:56:27.735Z,22.26
2022-08-21T17:57:27.793Z,22.25
2022-08-21T17:58:27.848Z,22.22
2022-08-21T17:59:27.928Z,22.20
2022-08-21T18:00:27.949Z,22.15
2022-08-21T18:01:28.100Z,22.23
2022-08-21T18:02:28.076Z,22.25
2022-08-21T18:03:28.165Z,22.13
2022-08-21T18:04:28.249Z,22.11
2022-08-21T18:05:28.359Z,22.07
2022-08-21T18:06:28.417Z,22.06
2022-08-21T18:07:32.682Z,22.02
2022-08-21T18:08:28.530Z,22.02
2022-08-21T18:09:28.588Z,22.06
2022-08-21T18:10:28.639Z,21.93
2022-08-21T18:11:28.701Z,21.99
2022-08-21T18:12:28.787Z,21.88
2022-08-21T18:13:28.821Z,21.98
2022-08-21T18:14:28.902Z,21.95
2022-08-21T18:15:28.933Z,21.89
2022-08-21T18:16:28.981Z,21.92
2022-08-21T18:17:29.058Z,21.83
2022-08-21T18:18:29.085Z,21.83
2022-08-21T18:19:29.133Z,21.82
2022-08-21T18:20:29.193Z,21.80
2022-08-21T18:21:29.280Z,21.83
2022-08-21T18:22:29.347Z,21.79
2022-08-21T18:23:43.490Z,21.70
2022-08-21T18:24:29.435Z,21.79
2022-08-21T18:25:29.492Z,21.79
2022-08-21T18:26:29.563Z,21.70
2022-08-21T18:27:29.926Z,21.69
2022-08-21T18:28:29.749Z,21.72
2022-08-21T18:29:29.776Z,21.72
2022-08-21T18:30:29.840Z,21.61
2022-08-21T18:31:29.900Z,21.69
2022-08-21T18:32:31.513Z,21.69
2022-08-21T18:33:30.063Z,21.70
2022-08-21T18:34:30.082Z,21.70
2022-08-21T18:35:30.153Z,21.73
2022-08-21T18:36:30.225Z,21.62
2022-08-21T18:37:30.276Z,21.67
2022-08-21T18:38:30.369Z,21.66
2022-08-21T18:39:38.131Z,21.70
2022-08-21T18:40:30.468Z,21.67
2022-08-21T18:41:30.669Z,21.66
2022-08-21T18:42:30.599Z,21.66
2022-08-21T18:43:30.654Z,21.60
2022-08-21T18:44:30.723Z,21.57
2022-08-21T18:45:30.789Z,21.55
2022-08-21T18:46:30.916Z,21.58
2022-08-21T18:47:30.938Z,21.43
2022-08-21T18:48:31.023Z,21.37
2022-08-21T18:49:31.113Z,21.40
2022-08-21T18:50:31.198Z,21.48
2022-08-21T18:51:31.455Z,21.46
2022-08-21T18:52:31.375Z,21.45
2022-08-21T18:53:31.470Z,21.37
2022-08-21T18:54:31.561Z,21.45
2022-08-21T18:55:31.637Z,21.37
2022-08-21T18:56:31.743Z,21.37
2022-08-21T18:57:31.775Z,21.48
2022-08-21T18:58:31.915Z,21.35
2022-08-21T18:59:31.896Z,21.39
2022-08-21T19:00:31.956Z,21.33
2022-08-21T19:01:31.999Z,21.36
2022-08-21T19:02:32.048Z,21.39
2022-08-21T19:03:32.134Z,21.36
2022-08-21T19:04:43.666Z,21.33
2022-08-21T19:05:32.199Z,21.36
2022-08-21T19:06:32.257Z,21.33
2022-08-21T19:07:32.340Z,21.33
2022-08-21T19:08:32.359Z,21.33
2022-08-21T19:09:32.401Z,21.27
2022-08-21T19:10:32.448Z,21.27
2022-08-21T19:11:32.535Z,21.27
2022-08-21T19:12:32.529Z,21.25
2022-08-21T19:13:32.573Z,21.18
2022-08-21T19:14:32.614Z,21.29
2022-08-21T19:15:32.672Z,21.25
2022-08-21T19:16:32.761Z,21.21
2022-08-21T19:17:32.801Z,21.17
2022-08-21T19:18:32.862Z,21.22
2022-08-21T19:19:32.944Z,21.22
2022-08-21T19:20:32.969Z,21.27
2022-08-21T19:21:33.021Z,21.18
2022-08-21T19:22:33.065Z,21.20
2022-08-21T19:23:34.948Z,21.24
2022-08-21T19:24:33.231Z,21.25
2022-08-21T19:25:34.477Z,21.20
2022-08-21T19:26:33.269Z,21.24
2022-08-21T19:27:33.316Z,21.20
2022-08-21T19:28:33.360Z,21.20
2022-08-21T19:30:33.508Z,21.17
2022-08-21T19:31:33.521Z,21.18
2022-08-21T19:32:33.596Z,21.22
2022-08-21T19:33:33.806Z,21.15
2022-08-21T19:34:33.732Z,21.20
2022-08-21T19:35:33.824Z,21.27
2022-08-21T19:36:33.886Z,21.15
2022-08-21T19:37:33.931Z,21.12
2022-08-21T19:38:34.028Z,21.12
2022-08-21T19:39:34.052Z,21.15
2022-08-21T19:40:34.187Z,21.22
2022-08-21T19:41:34.142Z,21.14
2022-08-21T19:42:34.185Z,21.06
2022-08-21T19:43:34.287Z,21.11
2022-08-21T19:44:34.296Z,21.06
2022-08-21T19:45:34.398Z,21.07
2022-08-21T19:46:35.079Z,21.06
2022-08-21T19:47:34.444Z,21.05
2022-08-21T19:48:34.498Z,20.97
2022-08-21T19:49:34.546Z,21.07
2022-08-21T19:50:34.642Z,20.99
2022-08-21T19:51:34.718Z,21.02
2022-08-21T19:52:35.762Z,21.06
2022-08-21T19:53:34.870Z,21.03
2022-08-21T19:54:35.046Z,20.92
2022-08-21T19:55:35.028Z,20.96
2022-08-21T19:56:35.075Z,20.95
2022-08-21T19:57:35.138Z,20.96
2022-08-21T19:58:35.191Z,20.93
2022-08-21T19:59:35.285Z,20.85
2022-08-21T20:00:35.372Z,20.97
2022-08-21T20:01:35.389Z,20.78
2022-08-21T20:02:35.636Z,20.90
2022-08-21T20:03:35.572Z,20.78
2022-08-21T20:04:35.675Z,20.87
2022-08-21T20:05:39.754Z,20.78
2022-08-21T20:06:35.861Z,20.80
2022-08-21T20:07:35.982Z,20.88
2022-08-21T20:08:36.050Z,20.75
2022-08-21T20:09:36.139Z,20.78
2022-08-21T20:10:36.232Z,20.80
2022-08-21T20:11:36.344Z,20.92
2022-08-21T20:12:36.393Z,20.78
2022-08-21T20:13:36.637Z,20.90
2022-08-21T20:14:36.553Z,20.78
2022-08-21T20:15:36.616Z,20.82
2022-08-21T20:16:36.688Z,20.77
2022-08-21T20:17:36.753Z,20.81
2022-08-21T20:18:36.842Z,20.90
2022-08-21T20:19:36.913Z,20.87
2022-08-21T20:20:36.965Z,20.82
2022-08-21T20:21:44.177Z,20.82
2022-08-21T20:22:37.114Z,20.82
2022-08-21T20:23:37.185Z,20.84
2022-08-21T20:24:37.285Z,20.90
2022-08-21T20:25:37.433Z,20.92
2022-08-21T20:26:37.403Z,20.93
2022-08-21T20:27:40.415Z,20.88
2022-08-21T20:28:37.550Z,20.88
2022-08-21T20:29:39.354Z,20.93
2022-08-21T20:30:38.076Z,20.87
2022-08-21T20:31:37.738Z,20.85
2022-08-21T20:32:37.807Z,20.84
2022-08-21T20:33:37.874Z,20.84
2022-08-21T20:34:37.947Z,20.82
2022-08-21T20:35:38.013Z,20.88
2022-08-21T20:36:38.109Z,20.82
2022-08-21T20:37:38.142Z,20.87
2022-08-21T20:38:38.283Z,20.80
2022-08-21T20:39:38.312Z,20.77
2022-08-21T20:40:38.322Z,20.78
2022-08-21T20:41:38.396Z,20.82
2022-08-21T20:42:38.481Z,20.81
2022-08-21T20:43:38.598Z,20.80
2022-08-21T20:44:46.775Z,20.81
2022-08-21T20:45:38.706Z,20.84
2022-08-21T20:46:38.774Z,20.80
2022-08-21T20:47:38.864Z,20.70
2022-08-21T20:48:49.070Z,20.74
2022-08-21T20:49:39.007Z,20.74
2022-08-21T20:50:39.077Z,20.70
2022-08-21T20:51:39.160Z,20.70
2022-08-21T20:52:39.305Z,20.69
2022-08-21T20:53:42.954Z,20.66
2022-08-21T20:54:39.405Z,20.66
2022-08-21T20:55:39.460Z,20.67
2022-08-21T20:56:39.530Z,20.65
2022-08-21T20:57:39.703Z,20.63
2022-08-21T20:58:39.679Z,20.59
2022-08-21T20:59:39.745Z,20.55
2022-08-21T21:00:39.807Z,20.47
2022-08-21T21:01:39.857Z,20.52
2022-08-21T21:02:39.941Z,20.51
2022-08-21T21:03:42.227Z,20.47
2022-08-21T21:04:40.042Z,20.40
2022-08-21T21:05:40.099Z,20.47
2022-08-21T21:06:40.166Z,20.48
2022-08-21T21:07:40.238Z,20.41
2022-08-21T21:08:40.341Z,20.40
2022-08-21T21:09:41.136Z,20.40
2022-08-21T21:10:40.423Z,20.48
2022-08-21T21:11:40.493Z,20.36
2022-08-21T21:12:40.577Z,20.37
2022-08-21T21:13:40.640Z,20.29
2022-08-21T21:14:40.794Z,20.22
2022-08-21T21:15:40.722Z,20.26
2022-08-21T21:16:40.865Z,20.24
2022-08-21T21:17:40.848Z,20.24
2022-08-21T21:18:41.429Z,20.24
2022-08-21T21:19:41.013Z,20.18
2022-08-21T21:20:41.045Z,20.10
2022-08-21T21:21:41.114Z,20.13
2022-08-21T21:22:41.213Z,20.09
2022-08-21T21:23:41.379Z,20.13
2022-08-21T21:24:41.347Z,20.13
2022-08-21T21:25:41.390Z,20.11
2022-08-21T21:27:41.643Z,20.13
2022-08-21T21:28:41.626Z,20.06
2022-08-21T21:29:41.772Z,20.06
2022-08-21T21:30:41.782Z,20.06
2022-08-21T21:31:41.874Z,20.06
2022-08-21T21:32:41.969Z,20.07
2022-08-21T21:33:42.064Z,20.02
2022-08-21T21:34:42.171Z,20.04
2022-08-21T21:35:49.016Z,20.03
2022-08-21T21:36:43.984Z,20.09
2022-08-21T21:37:42.512Z,20.03
2022-08-21T21:38:51.435Z,20.06
2022-08-21T21:39:42.641Z,20.03
2022-08-21T21:40:42.694Z,19.95
2022-08-21T21:41:43.007Z,19.94
2022-08-21T21:42:42.885Z,19.96
2022-08-21T21:43:42.951Z,19.88
2022-08-21T21:44:43.065Z,19.84
2022-08-21T21:45:43.107Z,19.84
2022-08-21T21:46:48.419Z,19.88
2022-08-21T21:47:43.223Z,19.84
2022-08-21T21:48:43.297Z,19.89
2022-08-21T21:49:43.500Z,19.85
2022-08-21T21:50:43.436Z,19.84
2022-08-21T21:51:43.542Z,19.79
2022-08-21T21:52:43.588Z,19.73
2022-08-21T21:53:43.896Z,19.74
2022-08-21T21:54:43.946Z,19.73
2022-08-21T21:55:43.841Z,19.77
2022-08-21T21:56:43.918Z,19.73
2022-08-21T21:57:43.998Z,19.59
2022-08-21T21:58:44.064Z,19.71
2022-08-21T21:59:44.169Z,19.56
2022-08-21T22:00:52.007Z,19.54
2022-08-21T22:01:44.295Z,19.54
2022-08-21T22:02:44.382Z,19.48
2022-08-21T22:03:44.446Z,19.47
2022-08-21T22:04:51.224Z,19.40
2022-08-21T22:05:44.622Z,19.37
2022-08-21T22:06:44.810Z,19.40
2022-08-21T22:07:44.743Z,19.39
2022-08-21T22:08:48.808Z,19.30
2022-08-21T22:09:44.896Z,19.27
2022-08-21T22:10:44.976Z,19.27
2022-08-21T22:11:45.241Z,19.30
2022-08-21T22:12:50.061Z,19.29
2022-08-21T22:13:45.736Z,19.29
2022-08-21T22:14:46.701Z,19.22
2022-08-21T22:15:45.456Z,19.33
2022-08-21T22:16:45.466Z,19.24
2022-08-21T22:17:45.736Z,19.24
2022-08-21T22:18:45.597Z,19.19
2022-08-21T22:19:45.686Z,19.15
2022-08-21T22:20:45.753Z,19.11
2022-08-21T22:21:45.835Z,19.04
2022-08-21T22:22:46.024Z,18.90
2022-08-21T22:23:45.981Z,18.99
2022-08-21T22:24:46.135Z,18.98
2022-08-21T22:25:46.148Z,18.90
2022-08-21T22:26:46.245Z,18.95
2022-08-21T22:27:46.391Z,18.92
2022-08-21T22:28:46.498Z,18.88
2022-08-21T22:29:46.557Z,18.83
2022-08-21T22:30:46.627Z,18.81
2022-08-21T22:31:46.704Z,18.88
2022-08-21T22:32:46.786Z,18.77
2022-08-21T22:33:46.921Z,18.80
2022-08-21T22:34:46.946Z,18.78
2022-08-21T22:35:47.069Z,18.83
2022-08-21T22:36:47.136Z,18.73
2022-08-21T22:37:47.655Z,18.71
2022-08-21T22:38:47.306Z,18.68
2022-08-21T22:39:47.413Z,18.65
2022-08-21T22:40:47.531Z,18.71
2022-08-21T22:41:47.600Z,18.70
2022-08-21T22:42:47.867Z,18.73
2022-08-21T22:43:47.773Z,18.71
2022-08-21T22:44:47.906Z,18.66
2022-08-21T22:45:47.957Z,18.66
2022-08-21T22:46:48.208Z,18.70
2022-08-21T22:47:48.158Z,18.65
2022-08-21T22:48:48.261Z,18.60
2022-08-21T22:49:48.466Z,18.62
2022-08-21T22:50:48.451Z,18.50
2022-08-21T22:51:48.531Z,18.49
2022-08-21T22:52:48.620Z,18.55
2022-08-21T22:53:48.726Z,18.53
2022-08-21T22:54:53.120Z,18.44
2022-08-21T22:55:48.938Z,18.50
2022-08-21T22:56:49.506Z,18.52
2022-08-21T22:57:49.980Z,18.56
2022-08-21T22:58:49.232Z,18.53
2022-08-21T22:59:49.339Z,18.44
2022-08-21T23:00:49.381Z,18.45
2022-08-21T23:01:49.877Z,18.43
2022-08-21T23:02:49.627Z,18.45
2022-08-21T23:03:49.644Z,18.47
2022-08-21T23:04:49.677Z,18.52
2022-08-21T23:05:49.759Z,18.50
2022-08-21T23:06:52.619Z,18.47
2022-08-21T23:07:50.106Z,18.45
2022-08-21T23:08:49.982Z,18.44
2022-08-21T23:09:53.157Z,18.49
2022-08-21T23:10:50.143Z,18.52
2022-08-21T23:12:50.318Z,18.50
2022-08-21T23:13:50.344Z,18.47
2022-08-21T23:15:50.517Z,18.56
2022-08-21T23:16:50.700Z,18.55
2022-08-21T23:17:50.712Z,18.44
2022-08-21T23:18:50.814Z,18.47
2022-08-21T23:19:50.921Z,18.45
2022-08-21T23:20:55.558Z,18.58
2022-08-21T23:21:51.179Z,18.50
2022-08-21T23:22:51.245Z,18.53
2022-08-21T23:23:51.333Z,18.53
2022-08-21T23:24:51.428Z,18.56
2022-08-21T23:25:51.511Z,18.62
2022-08-21T23:26:52.147Z,18.59
2022-08-21T23:27:51.715Z,18.66
2022-08-21T23:28:51.754Z,18.63
2022-08-21T23:29:51.850Z,18.65
2022-08-21T23:30:51.899Z,18.63
2022-08-21T23:31:51.977Z,18.66
2022-08-21T23:32:52.480Z,18.71
2022-08-21T23:33:52.208Z,18.68
2022-08-21T23:34:52.255Z,18.68
2022-08-21T23:35:52.349Z,18.71
2022-08-21T23:36:52.434Z,18.80
2022-08-21T23:37:52.523Z,18.75
2022-08-21T23:38:53.211Z,18.78
2022-08-21T23:39:52.704Z,18.81
2022-08-21T23:40:52.753Z,18.80
2022-08-21T23:41:52.823Z,18.84
2022-08-21T23:42:52.906Z,18.75